クアラルンプール の空港の天気 - METARとTAF

クアラルンプール国際空港 ( WMKK / KUL ) - マレーシア スランゴール州セパン
飛行場実況気象(Metar)
観測時間03/26 11:30 MYT (03/26 03:30 UTC)
風向・風速不定 2m/s
視程10km以上
天気現象
全天の4割程度の雲 雲底高度 550m
全天の8割程度の雲 雲底高度 8530m
気温32℃
湿度67%
気圧1011hPa
METARWMKK 260330Z VRB04KT 9999 SCT018 BKN280 32/25 Q1011 NOSIG
過去の天気等 Google飛行場航空写真 Wunderground天気予報

過去48時間のMETAR

飛行場予報(TAF)
発表時間: 3/26 08:28 MYT (3/26 00:28 UTC)
予報対象時間: 26日8時 MYT ~ 27日14時 MYT
風向・風速北北東 3m/s
視程10km以上
少しの雲 雲底高度 550m
26日12時 MYT ~ 26日14時 MYT に徐々に
風向・風速西 4m/s
少しの積乱雲 雲底高度 520m
26日16時 MYT ~ 26日20時 MYT に一時的に
風向・風速西北西 4m/s 瞬間風速 9m/s
視程3000m
天気現象雷雨
少しの積乱雲 雲底高度 460m
全天の4割程度の雲 雲底高度 550m
26日21時 MYT ~ 26日23時 MYT に徐々に
風向・風速不定 2m/s
視程9000m
少しの雲 雲底高度 610m
TAF AMD WMKK 260028Z 2600/2706 02005KT 9999 FEW018
BECMG 2604/2606 26008KT FEW017CB
TEMPO 2608/2612 30008G18KT 3000 TSRA FEW015CB SCT018
BECMG 2613/2615 VRB03KT 9000 FEW020